Aiken, SC (29803)

8:08 PM EDT on July 30, 2015 (GMT -0400)
100 Akre Wood | | Change Station
CLOSE
Current Station
Personal Weather Station
Location: Aiken, SC
Elevation: 449 ft
Nearby Weather Stations

Elev 449 ft 33.53 °N, 81.73 °W | Updated 7 minutes ago

Partly Cloudy
Partly Cloudy
87.3 °F
Feels Like 99 °F
N
0.0
Wind Variable Wind from SW
Gusts 0.7 mph

Today
High -- | Low -- °F
--% Chance of Precip.
Yesterday
High -- | Low -- °F
Precip. -- in
6:37 AM 8:28 PM
Full, 100% visible
Pressure 29.93 in
Visibility 10.0 miles
Clouds Clear
Heat Index 99 °F
Dew Point 77 °F
Humidity 72%
Rainfall 0.66 in
Snow Depth Not available.
UV 0 out of 12
Pollen 4.20 out of 12
Air Quality Not available.
Flu Activity Not available.
METAR KAIK 302355Z AUTO 17004KT 10SM CLR 29/22 A2993 RMK AO2 LTG DSNT SE

More Conditions Fewer Conditions

Pressure 29.93 in
Visibility 10.0 miles
Clouds Clear
Heat Index 99 °F
Dew Point 77 °F
Humidity 72%
Rainfall 0.66 in
Snow Depth Not available.
UV 0 out of 12
Pollen 4.20 out of 12
Air Quality Not available.
Flu Activity Not available.
METAR KAIK 302355Z AUTO 17004KT 10SM CLR 29/22 A2993 RMK AO2 LTG DSNT SE

More Conditions Fewer Conditions

10-Day Weather Forecast

×

Almanac

Astronomy

Jul. 30, 2015 Rise Set
Actual Time
Civil Twilight
Nautical Twilight
Astronomical Twilight
Moon
Length of Visible Light
Length of Day
Tomorrow will be .
, % of the Moon is Illuminated

Today's Extremes

State Highs State Lows

Community

WunderPhotos

Upload Photos

1,842,543 photos uploaded!

WunderBlogs® & News

Nearby

Air Quality

  Air Quality AQ Index Pollutant
Not available.

Snow Depth

Station Depth Elevation

Earthquake Activity

City Distance Mag. Time & Date
Minimum magnitude displayed is 2.5.

Coastal Water Temperatures

Place Temperature

Stations

Nearby Weather Stations

Station Location Temp. Windchill Dew Point Humidity Wind Precip. Elev Updated Type